createdAt,value
2023-03-20T00:00:19.302Z,97764.98
2023-03-20T00:03:05.846Z,97767.68
2023-03-20T00:05:32.141Z,97761.76
2023-03-20T00:07:58.752Z,97763.05
2023-03-20T00:10:29.101Z,97759.98
2023-03-20T00:12:55.796Z,97759.95
2023-03-20T00:15:24.127Z,97759.02
2023-03-20T00:17:50.424Z,97758.50
2023-03-20T00:20:17.112Z,97756.85
2023-03-20T00:22:43.466Z,97756.02
2023-03-20T00:25:13.809Z,97750.91
2023-03-20T00:27:40.590Z,97752.05
2023-03-20T00:30:24.815Z,97749.40
2023-03-20T00:32:52.361Z,97753.13
2023-03-20T00:35:26.432Z,97751.92
2023-03-20T00:37:53.488Z,97751.67
2023-03-20T00:40:20.552Z,97748.07
2023-03-20T00:42:50.325Z,97744.30
2023-03-20T00:45:18.203Z,97742.61
2023-03-20T00:47:45.366Z,97741.23
2023-03-20T00:50:22.421Z,97741.08
2023-03-20T00:52:49.953Z,97741.50
2023-03-20T00:55:17.405Z,97742.44
2023-03-20T00:57:47.337Z,97743.27
2023-03-20T01:00:22.150Z,97744.71
2023-03-20T01:02:49.175Z,97741.91
2023-03-20T01:05:15.700Z,97740.08
2023-03-20T01:07:41.952Z,97736.64
2023-03-20T01:10:09.379Z,97734.23
2023-03-20T01:12:35.740Z,97730.19
2023-03-20T01:15:02.239Z,97726.45
2023-03-20T01:17:28.773Z,97736.14
2023-03-20T01:19:55.063Z,97732.63
2023-03-20T01:22:21.431Z,97734.60
2023-03-20T01:24:47.981Z,97733.97
2023-03-20T01:27:16.182Z,97732.54
2023-03-20T01:29:43.053Z,97730.92
2023-03-20T01:32:17.376Z,97731.94
2023-03-20T01:34:46.149Z,97731.22
2023-03-20T01:37:16.442Z,97729.97
2023-03-20T01:39:42.958Z,97729.84
2023-03-20T01:42:13.394Z,97729.06
2023-03-20T01:44:42.214Z,97731.48
2023-03-20T01:47:16.545Z,97728.70
2023-03-20T01:50:02.371Z,97730.58
2023-03-20T01:52:28.765Z,97733.10
2023-03-20T01:54:55.554Z,97733.55
2023-03-20T01:57:23.453Z,97735.31
2023-03-20T02:00:16.305Z,97734.00
2023-03-20T02:02:44.403Z,97733.91
2023-03-20T02:05:13.539Z,97736.48
2023-03-20T02:07:40.030Z,97737.92
2023-03-20T02:10:11.485Z,97740.23
2023-03-20T02:12:44.555Z,97745.84
2023-03-20T02:15:14.125Z,97741.92
2023-03-20T02:18:06.347Z,97741.68
2023-03-20T02:20:50.628Z,97740.63
2023-03-20T02:23:34.298Z,97738.64
2023-03-20T02:26:06.962Z,97736.86
2023-03-20T02:28:33.292Z,97731.61
2023-03-20T02:31:26.505Z,97732.38
2023-03-20T02:33:56.583Z,97734.41
2023-03-20T02:36:25.972Z,97730.14
2023-03-20T02:38:52.332Z,97731.14
2023-03-20T02:41:37.651Z,97729.33
2023-03-20T02:44:08.064Z,97728.58
2023-03-20T02:46:39.846Z,97728.77
2023-03-20T02:49:16.776Z,97731.81
2023-03-20T02:51:55.585Z,97729.96
2023-03-20T02:54:25.023Z,97729.65
2023-03-20T02:56:52.959Z,97731.94
2023-03-20T02:59:35.641Z,97735.30
2023-03-20T03:02:05.357Z,97731.92
2023-03-20T03:04:34.619Z,97731.66
2023-03-20T03:07:01.954Z,97733.29
2023-03-20T03:09:33.641Z,97734.11
2023-03-20T03:12:02.035Z,97730.71
2023-03-20T03:14:44.370Z,97732.55
2023-03-20T03:17:14.571Z,97730.64
2023-03-20T03:19:45.401Z,97727.83
2023-03-20T03:22:11.901Z,97720.40
2023-03-20T03:24:42.333Z,97722.38
2023-03-20T03:27:15.770Z,97722.22
2023-03-20T03:29:42.833Z,97720.38
2023-03-20T03:32:21.611Z,97719.16
2023-03-20T03:34:48.072Z,97715.98
2023-03-20T03:37:26.168Z,97713.77
2023-03-20T03:40:11.145Z,97714.09
2023-03-20T03:43:16.344Z,97715.94
2023-03-20T03:45:52.857Z,97713.41
2023-03-20T03:48:23.259Z,97713.60
2023-03-20T03:50:54.113Z,97716.20
2023-03-20T03:53:24.562Z,97711.80
2023-03-20T03:55:52.887Z,97711.92
2023-03-20T03:58:29.002Z,97716.42
2023-03-20T04:00:57.133Z,97717.19
2023-03-20T04:03:25.017Z,97717.55
2023-03-20T04:05:53.892Z,97717.60
2023-03-20T04:08:20.225Z,97716.95
2023-03-20T04:10:46.616Z,97717.95
2023-03-20T04:13:13.245Z,97716.04
2023-03-20T04:15:39.798Z,97718.09
2023-03-20T04:18:08.628Z,97714.15
2023-03-20T04:20:38.045Z,97716.44
2023-03-20T04:23:05.206Z,97716.48
2023-03-20T04:25:31.560Z,97715.16
2023-03-20T04:27:57.851Z,97718.42
2023-03-20T04:30:42.177Z,97717.89
2023-03-20T04:33:44.197Z,97715.59
2023-03-20T04:36:47.351Z,97714.84
2023-03-20T04:39:15.269Z,97712.91
2023-03-20T04:41:41.680Z,97714.73
2023-03-20T04:44:08.619Z,97718.34
2023-03-20T04:46:35.306Z,97717.03
2023-03-20T04:49:05.569Z,97717.18
2023-03-20T04:51:32.136Z,97719.35
2023-03-20T04:53:58.463Z,97716.73
2023-03-20T04:56:24.763Z,97718.60
2023-03-20T04:58:53.741Z,97721.44
2023-03-20T05:01:21.618Z,97724.97
2023-03-20T05:03:48.258Z,97731.00
2023-03-20T05:06:14.800Z,97735.17
2023-03-20T05:08:43.312Z,97733.08
2023-03-20T05:11:10.234Z,97733.95
2023-03-20T05:14:02.956Z,97733.86
2023-03-20T05:16:43.567Z,97736.51
2023-03-20T05:19:19.085Z,97738.73
2023-03-20T05:21:53.450Z,97741.40
2023-03-20T05:24:47.049Z,97743.16
2023-03-20T05:27:36.232Z,97745.16
2023-03-20T05:30:21.446Z,97745.15
2023-03-20T05:33:08.434Z,97743.98
2023-03-20T05:35:53.998Z,97747.32
2023-03-20T05:38:40.554Z,97740.05
2023-03-20T05:41:29.739Z,97742.44
2023-03-20T05:44:18.491Z,97742.54
2023-03-20T05:46:56.309Z,97743.56
2023-03-20T05:49:52.181Z,97744.09
2023-03-20T05:52:24.905Z,97744.37
2023-03-20T05:55:11.449Z,97748.91
2023-03-20T05:57:58.235Z,97745.80
2023-03-20T06:00:41.568Z,97744.25
2023-03-20T06:03:27.618Z,97747.73
2023-03-20T06:05:58.900Z,97752.52
2023-03-20T06:08:25.262Z,97749.97
2023-03-20T06:10:51.963Z,97752.68
2023-03-20T06:13:18.555Z,97756.43
2023-03-20T06:15:44.972Z,97758.41
2023-03-20T06:18:14.955Z,97756.26
2023-03-20T06:20:41.345Z,97756.55
2023-03-20T06:23:08.164Z,97756.48
2023-03-20T06:25:34.779Z,97762.27
2023-03-20T06:28:01.688Z,97761.56
2023-03-20T06:30:28.177Z,97764.30
2023-03-20T06:32:54.714Z,97765.08
2023-03-20T06:35:22.072Z,97767.52
2023-03-20T06:37:49.431Z,97764.57
2023-03-20T06:40:20.432Z,97759.51
2023-03-20T06:42:46.917Z,97757.97
2023-03-20T06:45:13.835Z,97756.87
2023-03-20T06:47:52.319Z,97763.34
2023-03-20T06:50:19.445Z,97762.16
2023-03-20T06:52:46.069Z,97756.29
2023-03-20T06:55:38.737Z,97760.55
2023-03-20T06:58:05.452Z,97761.35
2023-03-20T07:00:32.385Z,97762.17
2023-03-20T07:03:02.381Z,97761.68
2023-03-20T07:05:29.270Z,97765.36
2023-03-20T07:07:56.068Z,97769.36
2023-03-20T07:10:22.384Z,97773.37
2023-03-20T07:12:51.156Z,97771.73
2023-03-20T07:15:18.142Z,97776.95
2023-03-20T07:17:44.992Z,97775.95
2023-03-20T07:20:11.944Z,97777.73
2023-03-20T07:22:39.130Z,97783.25
2023-03-20T07:25:16.399Z,97782.89
2023-03-20T07:27:42.886Z,97787.25
2023-03-20T07:30:10.132Z,97789.94
2023-03-20T07:32:38.925Z,97792.81
2023-03-20T07:35:05.546Z,97796.17
2023-03-20T07:37:32.436Z,97797.29
2023-03-20T07:40:03.502Z,97796.88
2023-03-20T07:42:32.166Z,97798.34
2023-03-20T07:45:05.812Z,97798.58
2023-03-20T07:47:32.158Z,97802.59
2023-03-20T07:49:58.789Z,97800.01
2023-03-20T07:52:25.315Z,97794.80
2023-03-20T07:54:52.832Z,97794.86
2023-03-20T07:57:20.241Z,97797.27
2023-03-20T07:59:47.045Z,97796.90
2023-03-20T08:02:14.597Z,97798.10
2023-03-20T08:04:41.102Z,97796.77
2023-03-20T08:07:07.503Z,97796.70
2023-03-20T08:09:34.234Z,97795.52
2023-03-20T08:12:00.567Z,97797.30
2023-03-20T08:14:26.953Z,97796.77
2023-03-20T08:17:10.227Z,97789.91
2023-03-20T08:19:39.648Z,97792.65
2023-03-20T08:22:05.940Z,97793.77
2023-03-20T08:24:32.235Z,97795.46
2023-03-20T08:26:58.716Z,97795.98
2023-03-20T08:29:25.386Z,97790.92
2023-03-20T08:31:51.790Z,97793.25
2023-03-20T08:37:36.049Z,97801.23
2023-03-20T08:40:02.932Z,97805.98
2023-03-20T08:42:29.576Z,97809.48
2023-03-20T08:44:56.035Z,97808.27
2023-03-20T08:47:22.552Z,97806.79
2023-03-20T08:49:49.169Z,97809.36
2023-03-20T08:52:15.779Z,97809.39
2023-03-20T08:54:42.233Z,97806.63
2023-03-20T08:57:08.819Z,97808.80
2023-03-20T08:59:35.353Z,97808.32
2023-03-20T09:02:01.895Z,97806.05
2023-03-20T09:04:28.571Z,97809.66
2023-03-20T09:06:55.164Z,97812.44
2023-03-20T09:09:21.767Z,97810.43
2023-03-20T09:11:48.419Z,97805.45
2023-03-20T09:14:15.199Z,97804.52
2023-03-20T09:16:41.682Z,97805.58
2023-03-20T09:19:08.540Z,97807.64
2023-03-20T09:21:47.200Z,97806.98
2023-03-20T09:24:38.173Z,97805.92
2023-03-20T09:27:09.020Z,97809.77
2023-03-20T09:29:35.495Z,97808.09
2023-03-20T09:32:02.963Z,97809.44
2023-03-20T09:34:33.107Z,97809.48
2023-03-20T09:36:59.638Z,97810.23
2023-03-20T09:42:28.357Z,97811.04
2023-03-20T09:45:18.741Z,97809.33
2023-03-20T09:47:46.329Z,97812.41
2023-03-20T09:50:22.492Z,97811.02
2023-03-20T09:52:56.487Z,97810.52
2023-03-20T09:55:43.965Z,97809.65
2023-03-20T09:58:13.279Z,97813.98
2023-03-20T10:00:51.419Z,97813.29
2023-03-20T10:03:43.142Z,97815.09
2023-03-20T10:06:18.677Z,97817.91
2023-03-20T10:08:47.490Z,97819.80
2023-03-20T10:11:26.726Z,97820.11
2023-03-20T10:13:58.863Z,97816.56
2023-03-20T10:16:50.665Z,97813.77
2023-03-20T10:19:27.217Z,97817.83
2023-03-20T10:22:01.000Z,97817.27
2023-03-20T10:24:30.364Z,97816.09
2023-03-20T10:27:01.663Z,97810.73
2023-03-20T10:29:31.167Z,97813.86
2023-03-20T10:32:04.114Z,97814.05
2023-03-20T10:34:46.347Z,97812.32
2023-03-20T10:37:21.979Z,97809.00
2023-03-20T10:40:18.261Z,97806.87
2023-03-20T10:42:46.544Z,97812.13
2023-03-20T10:45:28.118Z,97811.06
2023-03-20T10:47:56.169Z,97816.66
2023-03-20T10:50:32.793Z,97817.21
2023-03-20T10:53:01.708Z,97813.21
2023-03-20T10:55:31.069Z,97808.79
2023-03-20T10:58:01.572Z,97806.35
2023-03-20T11:00:28.098Z,97807.70
2023-03-20T11:06:09.277Z,97803.60
2023-03-20T11:26:42.111Z,97790.50
2023-03-20T11:29:17.559Z,97788.25
2023-03-20T11:31:45.153Z,97779.85
2023-03-20T11:34:15.437Z,97776.70
2023-03-20T11:37:12.243Z,97777.34
2023-03-20T11:39:53.168Z,97767.54
2023-03-20T11:42:27.551Z,97769.21
2023-03-20T11:45:15.828Z,97768.80
2023-03-20T11:47:54.656Z,97764.41
2023-03-20T11:51:04.241Z,97762.94
2023-03-20T11:53:48.240Z,97762.48
2023-03-20T11:57:17.251Z,97761.52
2023-03-20T12:00:26.759Z,97755.55
2023-03-20T12:03:25.677Z,97754.94
2023-03-20T12:05:58.995Z,97749.77
2023-03-20T12:08:26.816Z,97745.88
2023-03-20T12:10:54.964Z,97746.80
2023-03-20T12:13:24.562Z,97744.55
2023-03-20T12:15:54.753Z,97746.70
2023-03-20T12:18:31.099Z,97746.46
2023-03-20T12:21:15.919Z,97743.13
2023-03-20T12:23:42.298Z,97748.08
2023-03-20T12:26:11.764Z,97747.13
2023-03-20T12:28:57.115Z,97749.13
2023-03-20T12:31:32.273Z,97745.34
2023-03-20T12:34:01.272Z,97745.95
2023-03-20T12:36:31.431Z,97744.16
2023-03-20T12:38:58.226Z,97749.58
2023-03-20T12:41:44.897Z,97748.30
2023-03-20T12:44:24.908Z,97747.27
2023-03-20T12:47:03.313Z,97750.75
2023-03-20T12:50:02.271Z,97751.41
2023-03-20T12:52:42.780Z,97753.92
2023-03-20T12:55:12.764Z,97747.40
2023-03-20T12:58:08.748Z,97745.27
2023-03-20T13:00:47.154Z,97749.27
2023-03-20T13:03:22.433Z,97744.08
2023-03-20T13:05:51.705Z,97745.46
2023-03-20T13:08:36.682Z,97743.63
2023-03-20T13:11:10.453Z,97746.14
2023-03-20T13:13:51.090Z,97747.63
2023-03-20T13:16:42.342Z,97743.14
2023-03-20T13:19:37.476Z,97744.84
2023-03-20T13:22:16.874Z,97744.52
2023-03-20T13:24:54.227Z,97739.55
2023-03-20T13:27:33.898Z,97741.08
2023-03-20T13:30:29.827Z,97734.83
2023-03-20T13:33:32.648Z,97729.74
2023-03-20T13:36:08.763Z,97730.29
2023-03-20T13:38:38.508Z,97725.86
2023-03-20T13:41:07.349Z,97723.83
2023-03-20T13:43:42.711Z,97727.23
2023-03-20T13:46:11.508Z,97724.41
2023-03-20T13:48:39.019Z,97719.52
2023-03-20T13:51:24.366Z,97721.70
2023-03-20T13:53:54.539Z,97718.30
2023-03-20T13:56:23.931Z,97721.55
2023-03-20T13:58:53.445Z,97722.31
2023-03-20T14:01:29.438Z,97717.59
2023-03-20T14:03:56.190Z,97718.09
2023-03-20T14:06:22.524Z,97722.05
2023-03-20T14:08:52.914Z,97721.59
2023-03-20T14:11:20.270Z,97721.22
2023-03-20T14:13:57.389Z,97721.92
2023-03-20T14:16:27.122Z,97725.29
2023-03-20T14:19:08.851Z,97722.58
2023-03-20T14:21:36.019Z,97727.80
2023-03-20T14:24:06.793Z,97728.10
2023-03-20T14:26:39.480Z,97728.66
2023-03-20T14:29:08.973Z,97732.03
2023-03-20T14:31:36.041Z,97732.42
2023-03-20T14:34:05.680Z,97728.02
2023-03-20T14:36:52.321Z,97733.84
2023-03-20T14:39:21.927Z,97735.84
2023-03-20T14:42:08.482Z,97734.04
2023-03-20T14:44:59.007Z,97733.24
2023-03-20T14:47:31.246Z,97731.20
2023-03-20T14:50:04.547Z,97730.61
2023-03-20T14:52:33.921Z,97731.38
2023-03-20T14:55:19.545Z,97730.72
2023-03-20T14:57:56.165Z,97728.02
2023-03-20T15:00:28.043Z,97725.56
2023-03-20T15:03:17.505Z,97721.48
2023-03-20T15:05:45.390Z,97716.70
2023-03-20T15:08:23.862Z,97716.45
2023-03-20T15:10:54.855Z,97712.31
2023-03-20T15:13:22.040Z,97713.23
2023-03-20T15:15:59.596Z,97720.38
2023-03-20T15:18:26.755Z,97715.27
2023-03-20T15:20:55.598Z,97711.80
2023-03-20T15:23:22.274Z,97711.50
2023-03-20T15:25:49.881Z,97709.77
2023-03-20T15:28:19.892Z,97707.05
2023-03-20T15:30:47.522Z,97710.55
2023-03-20T15:33:16.474Z,97708.64
2023-03-20T15:35:42.978Z,97704.65
2023-03-20T15:38:13.624Z,97709.66
2023-03-20T15:41:28.074Z,97709.16
2023-03-20T15:44:20.982Z,97711.59
2023-03-20T15:46:50.485Z,97711.39
2023-03-20T15:49:20.472Z,97715.81
2023-03-20T15:51:47.584Z,97716.77
2023-03-20T15:54:15.945Z,97715.30
2023-03-20T15:56:46.131Z,97717.57
2023-03-20T15:59:13.797Z,97713.64
2023-03-20T16:01:40.129Z,97708.95
2023-03-20T16:04:06.540Z,97713.17
2023-03-20T16:06:32.933Z,97713.83
2023-03-20T16:09:01.167Z,97711.41
2023-03-20T16:11:38.611Z,97708.10
2023-03-20T16:14:06.026Z,97705.20
2023-03-20T16:16:32.687Z,97704.42
2023-03-20T16:18:59.423Z,97710.34
2023-03-20T16:21:31.583Z,97707.05
2023-03-20T16:23:58.673Z,97704.80
2023-03-20T16:26:26.241Z,97706.36
2023-03-20T16:28:54.294Z,97700.83
2023-03-20T16:31:28.690Z,97699.98
2023-03-20T16:33:59.152Z,97698.04
2023-03-20T16:36:29.752Z,97695.67
2023-03-20T16:39:16.522Z,97701.40
2023-03-20T16:41:43.298Z,97703.36
2023-03-20T16:44:20.383Z,97708.83
2023-03-20T16:47:00.892Z,97714.44
2023-03-20T16:49:27.240Z,97712.84
2023-03-20T16:51:56.002Z,97715.01
2023-03-20T16:54:26.119Z,97710.52
2023-03-20T16:56:53.285Z,97717.55
2023-03-20T16:59:19.879Z,97714.77
2023-03-20T17:01:49.263Z,97718.84
2023-03-20T17:04:20.675Z,97716.86
2023-03-20T17:06:49.572Z,97718.17
2023-03-20T17:09:21.622Z,97721.84
2023-03-20T17:11:56.418Z,97716.94
2023-03-20T17:14:22.797Z,97716.44
2023-03-20T17:16:51.154Z,97721.89
2023-03-20T17:19:18.807Z,97722.48
2023-03-20T17:21:45.554Z,97728.18
2023-03-20T17:24:12.532Z,97733.29
2023-03-20T17:26:43.728Z,97727.92
2023-03-20T17:29:10.760Z,97733.79
2023-03-20T17:31:37.571Z,97732.74
2023-03-20T17:34:04.149Z,97734.59
2023-03-20T17:36:31.371Z,97733.14
2023-03-20T17:38:58.754Z,97732.77
2023-03-20T17:41:25.409Z,97735.40
2023-03-20T17:43:51.781Z,97736.02
2023-03-20T17:46:19.354Z,97735.17
2023-03-20T17:48:47.414Z,97736.20
2023-03-20T17:51:13.897Z,97739.84
2023-03-20T17:53:40.242Z,97737.56
2023-03-20T17:56:13.750Z,97741.05
2023-03-20T17:58:40.616Z,97739.23
2023-03-20T18:01:07.348Z,97737.13
2023-03-20T18:03:34.387Z,97731.95
2023-03-20T18:06:01.007Z,97729.30
2023-03-20T18:08:27.496Z,97729.68
2023-03-20T18:10:54.350Z,97732.45
2023-03-20T18:13:21.688Z,97736.30
2023-03-20T18:15:49.254Z,97738.00
2023-03-20T18:18:15.793Z,97737.21
2023-03-20T18:20:42.208Z,97739.23
2023-03-20T18:23:08.736Z,97741.23
2023-03-20T18:25:35.778Z,97740.48
2023-03-20T18:28:03.798Z,97743.93
2023-03-20T18:30:36.496Z,97740.10
2023-03-20T18:33:03.935Z,97742.17
2023-03-20T18:35:30.617Z,97740.70
2023-03-20T18:37:57.889Z,97741.38
2023-03-20T18:40:28.797Z,97738.58
2023-03-20T18:42:55.970Z,97743.25
2023-03-20T18:45:24.142Z,97740.51
2023-03-20T18:47:51.631Z,97736.54
2023-03-20T18:50:18.022Z,97737.02
2023-03-20T18:52:45.372Z,97735.40
2023-03-20T18:55:12.866Z,97735.33
2023-03-20T18:57:41.760Z,97740.75
2023-03-20T19:00:20.650Z,97743.11
2023-03-20T19:02:47.619Z,97745.34
2023-03-20T19:05:14.541Z,97747.67
2023-03-20T19:07:41.179Z,97748.11
2023-03-20T19:10:27.828Z,97752.89
2023-03-20T19:12:56.786Z,97754.42
2023-03-20T19:15:24.713Z,97752.42
2023-03-20T19:17:51.233Z,97752.89
2023-03-20T19:20:32.147Z,97753.02
2023-03-20T19:22:58.553Z,97751.02
2023-03-20T19:25:25.068Z,97748.64
2023-03-20T19:27:51.527Z,97755.20
2023-03-20T19:30:34.959Z,97756.65
2023-03-20T19:33:03.603Z,97756.83
2023-03-20T19:35:54.491Z,97754.36
2023-03-20T19:38:19.713Z,97752.87
2023-03-20T19:40:47.138Z,97752.38
2023-03-20T19:43:13.524Z,97747.34
2023-03-20T19:45:41.545Z,97743.02
2023-03-20T19:48:12.581Z,97740.39
2023-03-20T19:50:41.704Z,97737.54
2023-03-20T19:53:11.008Z,97740.40
2023-03-20T19:55:38.408Z,97735.08
2023-03-20T19:58:05.317Z,97732.20
2023-03-20T20:00:56.814Z,97728.52
2023-03-20T20:03:20.440Z,97724.86
2023-03-20T20:05:47.718Z,97724.52
2023-03-20T20:08:28.266Z,97721.44
2023-03-20T20:10:57.360Z,97721.42
2023-03-20T20:13:27.766Z,97721.17
2023-03-20T20:15:54.647Z,97723.11
2023-03-20T20:18:23.062Z,97724.35
2023-03-20T20:22:06.420Z,97722.31
2023-03-20T20:23:43.652Z,97723.13
2023-03-20T20:26:09.968Z,97725.23
2023-03-20T20:28:36.308Z,97727.99
2023-03-20T20:31:02.953Z,97732.50
2023-03-20T20:33:29.387Z,97736.83
2023-03-20T20:36:27.871Z,97735.84
2023-03-20T20:38:50.740Z,97738.22
2023-03-20T20:41:17.693Z,97738.39
2023-03-20T20:46:31.529Z,97734.59
2023-03-20T20:48:58.084Z,97736.19
2023-03-20T20:51:24.404Z,97735.05
2023-03-20T20:53:50.789Z,97729.42
2023-03-20T20:56:17.439Z,97730.50
2023-03-20T20:58:43.785Z,97728.64
2023-03-20T21:01:10.125Z,97724.23
2023-03-20T21:03:36.680Z,97721.87
2023-03-20T21:06:04.413Z,97722.48
2023-03-20T21:08:30.758Z,97723.67
2023-03-20T21:10:57.527Z,97731.91
2023-03-20T21:13:23.996Z,97728.98
2023-03-20T21:15:57.087Z,97734.36
2023-03-20T21:18:26.629Z,97735.55
2023-03-20T21:20:53.088Z,97735.26
2023-03-20T21:23:19.511Z,97730.36
2023-03-20T21:25:47.838Z,97727.88
2023-03-20T21:28:14.863Z,97725.69
2023-03-20T21:30:49.856Z,97731.84
2023-03-20T21:33:23.507Z,97732.66
2023-03-20T21:35:50.767Z,97736.93
2023-03-20T21:41:08.716Z,97744.58
2023-03-20T21:43:35.049Z,97749.98
2023-03-20T21:54:59.796Z,97755.11
2023-03-20T22:02:43.537Z,97754.23
2023-03-20T22:17:20.877Z,97748.39
2023-03-20T22:22:42.580Z,97745.97
2023-03-20T22:28:06.989Z,97743.30
2023-03-20T22:42:06.833Z,97738.92
2023-03-20T22:45:19.693Z,97739.84
2023-03-20T22:47:34.355Z,97740.46
2023-03-20T22:50:19.610Z,97738.29
2023-03-20T22:52:49.422Z,97737.85
2023-03-20T22:55:16.876Z,97739.45
2023-03-20T22:57:53.052Z,97737.05
2023-03-20T23:00:26.494Z,97736.80
2023-03-20T23:02:54.960Z,97732.65
2023-03-20T23:05:23.803Z,97734.15
2023-03-20T23:07:50.095Z,97731.48
2023-03-20T23:10:16.728Z,97730.86
2023-03-20T23:12:44.273Z,97730.30
2023-03-20T23:15:11.043Z,97730.65
2023-03-20T23:17:37.348Z,97730.27
2023-03-20T23:20:11.589Z,97731.06
2023-03-20T23:22:38.451Z,97734.80
2023-03-20T23:25:13.350Z,97732.69
2023-03-20T23:27:43.063Z,97736.77
2023-03-20T23:30:10.141Z,97730.55
2023-03-20T23:32:37.699Z,97729.84
2023-03-20T23:35:04.961Z,97729.32
2023-03-20T23:37:31.601Z,97726.48
2023-03-20T23:39:57.878Z,97722.07
2023-03-20T23:42:30.695Z,97719.58
2023-03-20T23:47:45.217Z,97718.45
2023-03-20T23:50:20.693Z,97719.14
2023-03-20T23:53:01.026Z,97719.05
2023-03-20T23:55:30.237Z,97716.44
2023-03-20T23:57:57.070Z,97714.14
